Wetterdaten: Woche 07.01.13 - 13.01.13 (KW2)
Datum Zeit Temp. A. Feuchte A. Luftdruck Regen Wind Richtung Taupunkt Windchill Windben
07.01.2013 00:00 5,8 C 95 % 1026,6 hPa 0,2 l/m 6,4 km/h (2 Bft) NW 5,1 C 5,2 C 13,0 km/h (3 Bft)
07.01.2013 01:00 5,8 C 94 % 1026,6 hPa 0,0 l/m 5,2 km/h (1 Bft) W-NW 4,9 C 5,7 C 11,7 km/h (2 Bft)
07.01.2013 02:00 5,8 C 93 % 1026,8 hPa 0,0 l/m 5,0 km/h (1 Bft) W-NW 4,7 C 5,7 C 11,0 km/h (2 Bft)
07.01.2013 03:00 5,5 C 94 % 1027,0 hPa 0,0 l/m 2,3 km/h (1 Bft) W-NW 4,5 C 5,5 C 6,0 km/h (2 Bft)
07.01.2013 04:00 5,2 C 95 % 1027,1 hPa 0,0 l/m 2,1 km/h (1 Bft) W 4,4 C 5,2 C 5,5 km/h (2 Bft)
07.01.2013 05:00 5,2 C 95 % 1027,1 hPa 0,0 l/m 3,0 km/h (1 Bft) W-NW 4,4 C 5,2 C 8,2 km/h (2 Bft)
07.01.2013 06:00 5,1 C 96 % 1027,2 hPa 0,0 l/m 2,6 km/h (1 Bft) W 4,5 C 5,1 C 6,4 km/h (2 Bft)
07.01.2013 07:00 5,0 C 96 % 1027,3 hPa 0,0 l/m 3,2 km/h (1 Bft) W-NW 4,4 C 5,0 C 8,4 km/h (2 Bft)
07.01.2013 08:00 4,8 C 96 % 1027,5 hPa 0,0 l/m 3,0 km/h (1 Bft) W-NW 4,3 C 4,8 C 8,2 km/h (2 Bft)
07.01.2013 09:00 4,9 C 96 % 1027,7 hPa 0,0 l/m 1,2 km/h (1 Bft) W 4,3 C 4,9 C 3,6 km/h (1 Bft)
07.01.2013 10:00 5,2 C 96 % 1028,0 hPa 0,0 l/m 0,7 km/h (0 Bft) W-SW 4,6 C 5,2 C 2,8 km/h (1 Bft)
07.01.2013 11:00 5,5 C 95 % 1028,1 hPa 0,0 l/m 0,8 km/h (0 Bft) W-SW 4,7 C 5,5 C 2,8 km/h (1 Bft)
07.01.2013 12:00 5,6 C 93 % 1027,8 hPa 0,0 l/m 1,4 km/h (1 Bft) W 4,5 C 5,6 C 4,4 km/h (1 Bft)
07.01.2013 13:00 5,3 C 95 % 1027,4 hPa 0,0 l/m 1,7 km/h (1 Bft) W 4,5 C 5,3 C 4,9 km/h (1 Bft)
07.01.2013 14:00 5,4 C 95 % 1027,2 hPa 0,0 l/m 0,7 km/h (0 Bft) S-SO 4,6 C 5,4 C 2,8 km/h (1 Bft)
07.01.2013 15:00 5,6 C 94 % 1026,8 hPa 0,0 l/m 0,1 km/h (0 Bft) N 4,7 C 5,6 C 0,5 km/h (0 Bft)
07.01.2013 16:00 5,6 C 94 % 1027,0 hPa 0,0 l/m 0,1 km/h (0 Bft) N 4,7 C 5,6 C 1,1 km/h (0 Bft)
07.01.2013 17:00 5,5 C 95 % 1026,8 hPa 0,0 l/m 0,0 km/h (0 Bft) N 4,8 C 5,5 C 0,0 km/h (0 Bft)
07.01.2013 18:00 5,6 C 95 % 1026,7 hPa 0,0 l/m 0,0 km/h (0 Bft) N 4,9 C 5,6 C 0,0 km/h (0 Bft)
07.01.2013 19:00 5,6 C 96 % 1026,5 hPa 0,0 l/m 0,1 km/h (0 Bft) S-SW 5,0 C 5,6 C 0,3 km/h (0 Bft)
07.01.2013 20:00 5,6 C 96 % 1026,1 hPa 0,0 l/m 0,8 km/h (0 Bft) SW 5,0 C 5,6 C 2,5 km/h (1 Bft)
07.01.2013 21:00 5,8 C 96 % 1025,9 hPa 0,0 l/m 0,5 km/h (0 Bft) SO 5,2 C 5,8 C 1,3 km/h (1 Bft)
07.01.2013 22:00 6,0 C 96 % 1025,6 hPa 0,0 l/m 1,6 km/h (1 Bft) S 5,4 C 6,0 C 4,3 km/h (1 Bft)
07.01.2013 23:00 6,2 C 97 % 1025,3 hPa 0,0 l/m 1,2 km/h (1 Bft) S-SW 5,7 C 6,2 C 3,1 km/h (1 Bft)
08.01.2013 00:00 6,4 C 97 % 1024,6 hPa 0,0 l/m 3,2 km/h (1 Bft) S-SW 6,0 C 6,4 C 7,2 km/h (2 Bft)
08.01.2013 01:00 6,5 C 97 % 1024,2 hPa 0,0 l/m 1,4 km/h (1 Bft) S-SW 6,0 C 6,5 C 4,3 km/h (1 Bft)
08.01.2013 02:00 6,4 C 97 % 1023,8 hPa 0,0 l/m 1,4 km/h (1 Bft) SW 6,0 C 6,4 C 4,3 km/h (1 Bft)
08.01.2013 03:00 6,6 C 97 % 1023,7 hPa 0,0 l/m 1,7 km/h (1 Bft) SW 6,1 C 6,6 C 5,1 km/h (1 Bft)
08.01.2013 04:00 6,7 C 95 % 1023,1 hPa 0,0 l/m 3,4 km/h (1 Bft) W 6,0 C 6,7 C 9,1 km/h (2 Bft)
08.01.2013 05:00 6,5 C 95 % 1022,8 hPa 0,2 l/m 2,4 km/h (1 Bft) W-SW 5,8 C 6,5 C 7,4 km/h (2 Bft)
08.01.2013 06:00 6,2 C 96 % 1022,7 hPa 0,2 l/m 3,4 km/h (1 Bft) S 5,6 C 6,2 C 8,7 km/h (2 Bft)
08.01.2013 07:00 6,1 C 96 % 1022,7 hPa 0,0 l/m 3,1 km/h (1 Bft) W-SW 5,6 C 6,1 C 8,4 km/h (2 Bft)
08.01.2013 08:00 6,0 C 96 % 1022,4 hPa 0,0 l/m 2,6 km/h (1 Bft) W 5,5 C 6,0 C 7,8 km/h (2 Bft)
08.01.2013 09:00 5,9 C 97 % 1022,5 hPa 0,2 l/m 2,4 km/h (1 Bft) W-SW 5,5 C 5,9 C 7,8 km/h (2 Bft)
08.01.2013 10:00 6,1 C 97 % 1022,8 hPa 0,2 l/m 2,6 km/h (1 Bft) W-NW 5,6 C 6,1 C 6,8 km/h (2 Bft)
08.01.2013 11:00 6,2 C 97 % 1022,7 hPa 0,2 l/m 3,3 km/h (1 Bft) W-NW 5,7 C 6,2 C 10,2 km/h (2 Bft)
08.01.2013 12:00 6,2 C 97 % 1022,1 hPa 0,0 l/m 3,9 km/h (1 Bft) W-SW 5,8 C 6,2 C 10,6 km/h (2 Bft)
08.01.2013 13:00 6,2 C 97 % 1022,1 hPa 0,4 l/m 3,5 km/h (1 Bft) W-NW 5,7 C 6,2 C 9,4 km/h (2 Bft)
08.01.2013 14:00 6,3 C 97 % 1021,8 hPa 0,2 l/m 3,6 km/h (1 Bft) W 5,9 C 6,3 C 9,5 km/h (2 Bft)
08.01.2013 15:00 6,3 C 97 % 1021,9 hPa 0,0 l/m 3,7 km/h (1 Bft) W 5,9 C 6,3 C 10,5 km/h (2 Bft)
08.01.2013 16:00 6,3 C 97 % 1022,1 hPa 0,2 l/m 3,1 km/h (1 Bft) S-SW 5,9 C 6,3 C 9,3 km/h (2 Bft)
08.01.2013 17:00 6,4 C 97 % 1022,3 hPa 0,0 l/m 2,4 km/h (1 Bft) W 5,9 C 6,4 C 8,4 km/h (2 Bft)
08.01.2013 18:00 6,5 C 97 % 1022,4 hPa 0,2 l/m 1,7 km/h (1 Bft) S-SW 6,0 C 6,5 C 5,7 km/h (2 Bft)
08.01.2013 19:00 6,6 C 97 % 1022,4 hPa 0,0 l/m 1,8 km/h (1 Bft) W-SW 6,2 C 6,6 C 6,5 km/h (2 Bft)
08.01.2013 20:00 6,7 C 97 % 1022,5 hPa 0,0 l/m 2,4 km/h (1 Bft) W 6,2 C 6,7 C 7,0 km/h (2 Bft)
08.01.2013 21:00 6,7 C 97 % 1022,5 hPa 0,2 l/m 1,9 km/h (1 Bft) W 6,3 C 6,7 C 5,3 km/h (1 Bft)
08.01.2013 22:00 6,8 C 97 % 1022,5 hPa 0,2 l/m 1,2 km/h (1 Bft) S-SW 6,4 C 6,8 C 4,9 km/h (1 Bft)
08.01.2013 23:00 6,8 C 98 % 1022,3 hPa 0,2 l/m 0,6 km/h (0 Bft) SW 6,5 C 6,8 C 2,8 km/h (1 Bft)
09.01.2013 00:00 6,8 C 98 % 1022,1 hPa 0,2 l/m 0,6 km/h (0 Bft) S 6,5 C 6,8 C 3,2 km/h (1 Bft)
09.01.2013 01:00 6,7 C 98 % 1021,6 hPa 0,0 l/m 1,2 km/h (1 Bft) W-SW 6,4 C 6,7 C 4,5 km/h (1 Bft)
09.01.2013 02:00 6,7 C 98 % 1021,4 hPa 0,0 l/m 1,7 km/h (1 Bft) S-SW 6,4 C 6,7 C 5,6 km/h (2 Bft)
09.01.2013 03:00 6,7 C 98 % 1021,1 hPa 0,2 l/m 1,8 km/h (1 Bft) S-SW 6,4 C 6,7 C 5,6 km/h (2 Bft)
09.01.2013 04:00 6,6 C 98 % 1020,7 hPa 0,2 l/m 1,1 km/h (0 Bft) S-SW 6,3 C 6,6 C 4,5 km/h (1 Bft)
09.01.2013 05:00 6,6 C 98 % 1020,2 hPa 0,4 l/m 2,2 km/h (1 Bft) SW 6,3 C 6,6 C 6,3 km/h (2 Bft)
09.01.2013 06:00 6,6 C 98 % 1019,7 hPa 0,0 l/m 3,0 km/h (1 Bft) S-SW 6,3 C 6,6 C 8,2 km/h (2 Bft)
09.01.2013 07:00 6,5 C 98 % 1019,4 hPa 0,0 l/m 2,7 km/h (1 Bft) SW 6,2 C 6,5 C 7,9 km/h (2 Bft)
09.01.2013 08:00 6,4 C 97 % 1019,1 hPa 0,2 l/m 2,8 km/h (1 Bft) W 6,0 C 6,4 C 7,9 km/h (2 Bft)
09.01.2013 09:00 6,4 C 97 % 1018,7 hPa 0,0 l/m 3,3 km/h (1 Bft) SW 5,9 C 6,4 C 8,4 km/h (2 Bft)
09.01.2013 10:00 6,3 C 97 % 1018,3 hPa 0,0 l/m 3,6 km/h (1 Bft) S-SW 5,9 C 6,3 C 8,7 km/h (2 Bft)
09.01.2013 11:00 6,3 C 97 % 1017,7 hPa 0,2 l/m 4,5 km/h (1 Bft) S-SW 5,8 C 6,3 C 10,9 km/h (2 Bft)
09.01.2013 12:00 6,2 C 97 % 1016,7 hPa 0,0 l/m 4,8 km/h (1 Bft) S-SW 5,8 C 6,2 C 12,1 km/h (2 Bft)
09.01.2013 13:00 6,3 C 97 % 1015,7 hPa 0,6 l/m 4,6 km/h (1 Bft) S-SW 5,8 C 6,3 C 12,2 km/h (2 Bft)
09.01.2013 14:00 6,3 C 96 % 1015,0 hPa 1,0 l/m 4,6 km/h (1 Bft) SW 5,7 C 6,3 C 11,3 km/h (2 Bft)
09.01.2013 15:00 6,3 C 96 % 1014,6 hPa 0,6 l/m 5,9 km/h (2 Bft) SW 5,7 C 6,1 C 14,4 km/h (3 Bft)
09.01.2013 16:00 6,1 C 96 % 1014,1 hPa 0,6 l/m 6,2 km/h (2 Bft) W-NW 5,5 C 6,0 C 14,5 km/h (3 Bft)
09.01.2013 17:00 6,0 C 96 % 1013,7 hPa 1,0 l/m 5,3 km/h (1 Bft) SW 5,4 C 6,0 C 12,5 km/h (2 Bft)
09.01.2013 18:00 6,0 C 97 % 1013,5 hPa 0,4 l/m 3,9 km/h (1 Bft) S-SW 5,5 C 6,0 C 10,5 km/h (2 Bft)
09.01.2013 19:00 6,2 C 97 % 1013,3 hPa 0,2 l/m 2,2 km/h (1 Bft) W 5,7 C 6,2 C 7,2 km/h (2 Bft)
09.01.2013 20:00 6,2 C 97 % 1013,1 hPa 0,0 l/m 4,1 km/h (1 Bft) W-NW 5,7 C 5,9 C 9,8 km/h (2 Bft)
09.01.2013 21:00 5,5 C 93 % 1013,1 hPa 0,0 l/m 7,6 km/h (2 Bft) NW 4,5 C 4,3 C 14,1 km/h (3 Bft)
09.01.2013 22:00 5,1 C 93 % 1013,1 hPa 0,0 l/m 4,2 km/h (1 Bft) W-SW 4,2 C 5,1 C 9,8 km/h (2 Bft)
09.01.2013 23:00 4,8 C 94 % 1012,8 hPa 0,0 l/m 3,9 km/h (1 Bft) W 4,0 C 4,8 C 9,9 km/h (2 Bft)
10.01.2013 00:00 4,4 C 95 % 1012,5 hPa 0,0 l/m 3,5 km/h (1 Bft) W-NW 3,7 C 4,4 C 9,4 km/h (2 Bft)
10.01.2013 01:00 4,3 C 94 % 1012,3 hPa 0,0 l/m 5,2 km/h (1 Bft) W-NW 3,4 C 4,2 C 12,6 km/h (3 Bft)
10.01.2013 02:00 3,5 C 94 % 1012,0 hPa 0,0 l/m 3,0 km/h (1 Bft) W 2,7 C 3,5 C 10,3 km/h (2 Bft)
10.01.2013 03:00 3,6 C 95 % 1011,6 hPa 0,0 l/m 2,9 km/h (1 Bft) W 2,8 C 3,6 C 8,4 km/h (2 Bft)
10.01.2013 04:00 3,8 C 95 % 1011,1 hPa 0,0 l/m 3,5 km/h (1 Bft) W 3,1 C 3,8 C 11,8 km/h (2 Bft)
10.01.2013 05:00 4,0 C 95 % 1010,6 hPa 0,0 l/m 4,1 km/h (1 Bft) W 3,2 C 4,0 C 10,9 km/h (2 Bft)
10.01.2013 06:00 3,9 C 94 % 1010,2 hPa 0,0 l/m 4,2 km/h (1 Bft) SW 3,0 C 3,9 C 10,9 km/h (2 Bft)
10.01.2013 07:00 3,6 C 94 % 1009,7 hPa 0,0 l/m 4,4 km/h (1 Bft) W 2,7 C 3,6 C 12,0 km/h (2 Bft)
10.01.2013 08:00 3,8 C 94 % 1009,5 hPa 0,0 l/m 5,7 km/h (2 Bft) W-NW 2,9 C 3,7 C 14,0 km/h (3 Bft)
10.01.2013 09:00 4,2 C 93 % 1009,1 hPa 0,0 l/m 6,2 km/h (2 Bft) W-SW 3,2 C 3,9 C 15,8 km/h (3 Bft)
10.01.2013 10:00 4,4 C 93 % 1008,7 hPa 0,4 l/m 6,5 km/h (2 Bft) W 3,4 C 4,0 C 16,5 km/h (3 Bft)
10.01.2013 11:00 4,4 C 94 % 1008,2 hPa 0,4 l/m 6,0 km/h (2 Bft) W-NW 3,5 C 4,1 C 16,4 km/h (3 Bft)
10.01.2013 12:00 4,3 C 94 % 1007,8 hPa 2,0 l/m 6,7 km/h (2 Bft) W-SW 3,4 C 3,6 C 16,6 km/h (3 Bft)
10.01.2013 13:00 3,6 C 94 % 1007,5 hPa 1,0 l/m 10,2 km/h (2 Bft) W-NW 2,7 C 0,6 C 19,2 km/h (3 Bft)
10.01.2013 14:00 1,0 C 96 % 1007,6 hPa 0,6 l/m 8,1 km/h (2 Bft) N-NW 0,4 C -0,7 C 11,8 km/h (2 Bft)
10.01.2013 15:00 1,1 C 97 % 1007,8 hPa 0,2 l/m 12,5 km/h (2 Bft) N-NO 0,6 C -3,8 C 18,5 km/h (3 Bft)
10.01.2013 16:00 0,7 C 95 % 1008,2 hPa 0,0 l/m 12,2 km/h (2 Bft) N-NW -0,0 C -4,2 C 17,6 km/h (3 Bft)
10.01.2013 17:00 0,3 C 93 % 1008,8 hPa 0,0 l/m 10,3 km/h (2 Bft) N-NW -0,8 C -3,3 C 15,6 km/h (3 Bft)
10.01.2013 18:00 -0,5 C 89 % 1009,5 hPa 0,0 l/m 11,9 km/h (2 Bft) N-NW -2,0 C -5,3 C 18,4 km/h (3 Bft)
10.01.2013 19:00 -0,3 C 87 % 1009,7 hPa 0,0 l/m 4,3 km/h (1 Bft) N -2,2 C -1,1 C 7,0 km/h (2 Bft)
10.01.2013 20:00 -0,3 C 90 % 1009,9 hPa 0,0 l/m 0,8 km/h (0 Bft) NW -1,8 C -0,3 C 2,4 km/h (1 Bft)
10.01.2013 21:00 -0,2 C 92 % 1010,2 hPa 0,0 l/m 2,3 km/h (1 Bft) W-NW -1,4 C -0,2 C 5,5 km/h (2 Bft)
10.01.2013 22:00 -0,2 C 93 % 1010,5 hPa 0,0 l/m 4,3 km/h (1 Bft) NW -1,3 C -0,2 C 8,7 km/h (2 Bft)
10.01.2013 23:00 -0,4 C 90 % 1010,9 hPa 0,0 l/m 6,7 km/h (2 Bft) NW -1,8 C -1,0 C 11,2 km/h (2 Bft)
11.01.2013 00:00 -0,6 C 90 % 1011,1 hPa 0,0 l/m 4,8 km/h (1 Bft) NW -2,1 C -1,1 C 9,0 km/h (2 Bft)
11.01.2013 01:00 -0,7 C 92 % 1011,4 hPa 0,0 l/m 6,1 km/h (2 Bft) W-NW -1,9 C -1,2 C 11,0 km/h (2 Bft)
11.01.2013 02:00 -0,9 C 90 % 1011,8 hPa 0,0 l/m 7,2 km/h (2 Bft) NW -2,3 C -1,9 C 11,4 km/h (2 Bft)
11.01.2013 03:00 -0,9 C 91 % 1012,1 hPa 0,0 l/m 7,7 km/h (2 Bft) NW -2,2 C -2,4 C 14,2 km/h (3 Bft)
11.01.2013 04:00 -1,2 C 91 % 1012,2 hPa 0,0 l/m 7,5 km/h (2 Bft) NW -2,5 C -2,5 C 12,9 km/h (3 Bft)
11.01.2013 05:00 -1,1 C 90 % 1012,7 hPa 0,0 l/m 7,4 km/h (2 Bft) NW -2,4 C -2,4 C 13,7 km/h (3 Bft)
11.01.2013 06:00 -1,1 C 91 % 1013,2 hPa 0,0 l/m 6,5 km/h (2 Bft) W-NW -2,4 C -1,7 C 12,4 km/h (2 Bft)
11.01.2013 07:00 -1,2 C 92 % 1013,8 hPa 0,0 l/m 4,5 km/h (1 Bft) W-NW -2,3 C -1,2 C 10,2 km/h (2 Bft)
11.01.2013 08:00 -1,1 C 92 % 1014,5 hPa 0,0 l/m 4,7 km/h (1 Bft) NW -2,2 C -1,1 C 9,5 km/h (2 Bft)
11.01.2013 09:00 -0,9 C 92 % 1015,0 hPa 0,0 l/m 4,9 km/h (1 Bft) W-NW -2,1 C -0,9 C 10,5 km/h (2 Bft)
11.01.2013 10:00 -0,8 C 91 % 1015,5 hPa 0,0 l/m 4,0 km/h (1 Bft) W-NW -2,1 C -0,8 C 9,3 km/h (2 Bft)
11.01.2013 11:00 -0,6 C 91 % 1015,7 hPa 0,0 l/m 3,7 km/h (1 Bft) W-NW -2,0 C -0,6 C 8,7 km/h (2 Bft)
11.01.2013 12:00 -0,4 C 90 % 1015,8 hPa 0,0 l/m 4,2 km/h (1 Bft) W-NW -1,8 C -0,4 C 9,7 km/h (2 Bft)
11.01.2013 13:00 -0,3 C 90 % 1015,7 hPa 0,0 l/m 4,0 km/h (1 Bft) W -1,8 C -0,3 C 9,7 km/h (2 Bft)
11.01.2013 14:00 -0,3 C 89 % 1015,5 hPa 0,0 l/m 3,7 km/h (1 Bft) W-SW -1,9 C -0,3 C 8,7 km/h (2 Bft)
11.01.2013 15:00 -0,4 C 90 % 1015,9 hPa 0,0 l/m 3,3 km/h (1 Bft) W-NW -1,9 C -0,4 C 8,8 km/h (2 Bft)
11.01.2013 16:00 -0,8 C 90 % 1016,5 hPa 0,0 l/m 2,6 km/h (1 Bft) W -2,3 C -0,8 C 6,3 km/h (2 Bft)
11.01.2013 17:00 -0,8 C 90 % 1016,8 hPa 0,0 l/m 1,9 km/h (1 Bft) W -2,2 C -0,8 C 5,2 km/h (1 Bft)
11.01.2013 18:00 -0,9 C 91 % 1016,9 hPa 0,0 l/m 1,8 km/h (1 Bft) W -2,2 C -0,9 C 5,6 km/h (2 Bft)
11.01.2013 19:00 -1,5 C 92 % 1017,0 hPa 0,0 l/m 2,2 km/h (1 Bft) SW -2,6 C -1,5 C 6,7 km/h (2 Bft)
11.01.2013 20:00 -1,5 C 93 % 1017,3 hPa 0,0 l/m 2,4 km/h (1 Bft) W -2,5 C -1,5 C 6,4 km/h (2 Bft)
11.01.2013 21:00 -1,7 C 94 % 1017,6 hPa 0,0 l/m 2,8 km/h (1 Bft) W-NW -2,5 C -1,7 C 7,2 km/h (2 Bft)
11.01.2013 22:00 -1,7 C 93 % 1017,8 hPa 0,0 l/m 3,1 km/h (1 Bft) W-NW -2,7 C -1,7 C 6,0 km/h (2 Bft)
11.01.2013 23:00 -1,9 C 93 % 1018,0 hPa 0,0 l/m 2,9 km/h (1 Bft) W-NW -2,8 C -1,9 C 5,7 km/h (2 Bft)
12.01.2013 00:00 -2,5 C 94 % 1018,1 hPa 0,0 l/m 0,6 km/h (0 Bft) W -3,4 C -2,5 C 1,7 km/h (1 Bft)
12.01.2013 01:00 -3,4 C 95 % 1018,3 hPa 0,0 l/m 0,0 km/h (0 Bft) N -4,1 C -3,4 C 0,0 km/h (0 Bft)
12.01.2013 02:00 -3,8 C 95 % 1018,5 hPa 0,0 l/m 0,0 km/h (0 Bft) N -4,4 C -3,8 C 0,0 km/h (0 Bft)
12.01.2013 03:00 -4,2 C 96 % 1018,4 hPa 0,0 l/m 0,0 km/h (0 Bft) N -4,8 C -4,2 C 0,0 km/h (0 Bft)
12.01.2013 04:00 -4,7 C 96 % 1018,4 hPa 0,0 l/m 0,0 km/h (0 Bft) N -5,2 C -4,7 C 0,0 km/h (0 Bft)
12.01.2013 05:00 -5,5 C 96 % 1018,3 hPa 0,0 l/m 0,0 km/h (0 Bft) N -6,1 C -5,5 C 0,0 km/h (0 Bft)
12.01.2013 06:00 -5,8 C 96 % 1018,4 hPa 0,0 l/m 0,0 km/h (0 Bft) N -6,4 C -5,8 C 0,0 km/h (0 Bft)
12.01.2013 07:00 -6,2 C 96 % 1018,8 hPa 0,0 l/m 0,0 km/h (0 Bft) N -6,8 C -6,2 C 0,0 km/h (0 Bft)
12.01.2013 08:00 -6,6 C 95 % 1019,2 hPa 0,0 l/m 0,0 km/h (0 Bft) N -7,2 C -6,6 C 0,0 km/h (0 Bft)
12.01.2013 09:00 -5,9 C 96 % 1019,7 hPa 0,0 l/m 0,0 km/h (0 Bft) N -6,5 C -5,9 C 0,0 km/h (0 Bft)
12.01.2013 10:00 -4,3 C 96 % 1019,9 hPa 0,0 l/m 0,0 km/h (0 Bft) N -4,8 C -4,3 C 0,0 km/h (0 Bft)
12.01.2013 11:00 -2,7 C 96 % 1020,0 hPa 0,0 l/m 0,0 km/h (0 Bft) N -3,3 C -2,7 C 0,0 km/h (0 Bft)
12.01.2013 12:00 -1,5 C 93 % 1019,9 hPa 0,0 l/m 0,7 km/h (0 Bft) SO -2,5 C -1,5 C 2,0 km/h (1 Bft)
12.01.2013 13:00 -0,9 C 89 % 1019,7 hPa 0,0 l/m 0,4 km/h (0 Bft) NO -2,6 C -0,9 C 0,9 km/h (0 Bft)
12.01.2013 14:00 -0,6 C 83 % 1019,8 hPa 0,0 l/m 2,8 km/h (1 Bft) N -3,1 C -0,6 C 4,5 km/h (1 Bft)
12.01.2013 15:00 -1,0 C 85 % 1020,1 hPa 0,0 l/m 1,3 km/h (1 Bft) N-NO -3,2 C -1,0 C 2,9 km/h (1 Bft)
12.01.2013 16:00 -1,5 C 88 % 1020,3 hPa 0,0 l/m 0,4 km/h (0 Bft) N-NO -3,2 C -1,5 C 0,8 km/h (0 Bft)
12.01.2013 17:00 -1,8 C 89 % 1020,4 hPa 0,0 l/m 0,0 km/h (0 Bft) N -3,4 C -1,8 C 0,0 km/h (0 Bft)
12.01.2013 18:00 -1,8 C 90 % 1020,4 hPa 0,0 l/m 0,0 km/h (0 Bft) N -3,3 C -1,8 C 0,0 km/h (0 Bft)
12.01.2013 19:00 -1,9 C 91 % 1020,5 hPa 0,0 l/m 0,0 km/h (0 Bft) N -3,1 C -1,9 C 0,0 km/h (0 Bft)
12.01.2013 20:00 -1,8 C 92 % 1020,7 hPa 0,0 l/m 0,1 km/h (0 Bft) N-NO -2,9 C -1,8 C 0,3 km/h (0 Bft)
12.01.2013 21:00 -1,7 C 92 % 1020,9 hPa 0,0 l/m 2,3 km/h (1 Bft) N-NO -2,8 C -1,7 C 3,7 km/h (1 Bft)
12.01.2013 22:00 -1,8 C 93 % 1020,9 hPa 0,0 l/m 2,4 km/h (1 Bft) N-NO -2,8 C -1,8 C 3,9 km/h (1 Bft)
12.01.2013 23:00 -1,8 C 94 % 1020,8 hPa 0,0 l/m 3,5 km/h (1 Bft) N-NO -2,7 C -1,8 C 5,3 km/h (1 Bft)
13.01.2013 00:00 -1,8 C 94 % 1020,4 hPa 0,0 l/m 3,5 km/h (1 Bft) N-NO -2,6 C -1,8 C 5,5 km/h (2 Bft)
13.01.2013 01:00 -1,7 C 94 % 1020,3 hPa 0,0 l/m 3,3 km/h (1 Bft) O-NO -2,5 C -1,7 C 6,6 km/h (2 Bft)
13.01.2013 02:00 -1,7 C 94 % 1020,3 hPa 0,0 l/m 2,5 km/h (1 Bft) NO -2,5 C -1,7 C 4,9 km/h (1 Bft)
13.01.2013 03:00 -1,7 C 95 % 1020,5 hPa 0,0 l/m 2,8 km/h (1 Bft) NO -2,4 C -1,7 C 4,5 km/h (1 Bft)
13.01.2013 04:00 -1,9 C 94 % 1020,3 hPa 0,0 l/m 3,2 km/h (1 Bft) N-NO -2,7 C -1,9 C 4,9 km/h (1 Bft)
13.01.2013 05:00 -2,1 C 94 % 1020,2 hPa 0,0 l/m 2,4 km/h (1 Bft) N-NW -2,9 C -2,1 C 4,3 km/h (1 Bft)
13.01.2013 06:00 -2,1 C 94 % 1020,2 hPa 0,0 l/m 5,2 km/h (1 Bft) N -2,9 C -2,2 C 7,8 km/h (2 Bft)
13.01.2013 07:00 -1,9 C 93 % 1020,4 hPa 0,0 l/m 6,6 km/h (2 Bft) N -2,8 C -2,2 C 9,4 km/h (2 Bft)
13.01.2013 08:00 -1,8 C 94 % 1020,6 hPa 0,0 l/m 5,2 km/h (1 Bft) N-NO -2,7 C -1,8 C 8,0 km/h (2 Bft)
13.01.2013 09:00 -1,8 C 95 % 1020,7 hPa 0,0 l/m 4,8 km/h (1 Bft) O-NO -2,5 C -1,8 C 7,6 km/h (2 Bft)
13.01.2013 10:00 -2,0 C 94 % 1020,9 hPa 0,0 l/m 6,4 km/h (2 Bft) O-NO -2,8 C -2,4 C 12,2 km/h (2 Bft)
13.01.2013 11:00 -2,3 C 90 % 1021,0 hPa 0,0 l/m 7,6 km/h (2 Bft) O-NO -3,7 C -3,6 C 14,2 km/h (3 Bft)
13.01.2013 12:00 -2,3 C 89 % 1021,0 hPa 0,0 l/m 7,1 km/h (2 Bft) O-NO -3,9 C -3,3 C 13,6 km/h (3 Bft)
13.01.2013 13:00 -2,3 C 88 % 1020,7 hPa 0,0 l/m 7,7 km/h (2 Bft) O-NO -4,1 C -3,8 C 13,7 km/h (3 Bft)
13.01.2013 14:00 -2,6 C 88 % 1020,5 hPa 0,0 l/m 7,6 km/h (2 Bft) O-NO -4,3 C -3,8 C 12,6 km/h (3 Bft)
13.01.2013 15:00 -2,8 C 88 % 1020,4 hPa 0,0 l/m 7,1 km/h (2 Bft) O-NO -4,5 C -3,7 C 12,9 km/h (3 Bft)
13.01.2013 16:00 -4,2 C 91 % 1020,5 hPa 0,0 l/m 2,7 km/h (1 Bft) O-NO -5,5 C -4,2 C 4,5 km/h (1 Bft)
13.01.2013 17:00 -5,7 C 93 % 1020,6 hPa 0,0 l/m 0,0 km/h (0 Bft) N -6,7 C -5,7 C 0,1 km/h (0 Bft)
13.01.2013 18:00 -4,9 C 95 % 1020,4 hPa 0,0 l/m 0,5 km/h (0 Bft) NO -5,6 C -4,9 C 0,9 km/h (0 Bft)
13.01.2013 19:00 -3,5 C 93 % 1020,3 hPa 0,0 l/m 3,9 km/h (1 Bft) NO -4,5 C -3,5 C 5,9 km/h (2 Bft)
13.01.2013 20:00 -3,1 C 91 % 1020,0 hPa 0,0 l/m 6,0 km/h (2 Bft) O-NO -4,3 C -3,4 C 9,9 km/h (2 Bft)
13.01.2013 21:00 -3,2 C 89 % 1019,8 hPa 0,0 l/m 6,9 km/h (2 Bft) O-NO -4,7 C -4,1 C 12,1 km/h (2 Bft)
13.01.2013 22:00 -3,5 C 91 % 1019,7 hPa 0,0 l/m 5,1 km/h (1 Bft) NO -4,8 C -3,5 C 8,4 km/h (2 Bft)
13.01.2013 23:00 -3,8 C 92 % 1019,4 hPa 0,0 l/m 4,7 km/h (1 Bft) NO -4,9 C -3,8 C 7,6 km/h (2 Bft)
Min-Datum _ 12.01.13 12.01.13 10.01.13 - 07.01.13 - 12.01.13 10.01.13 07.01.13
_ Min-Zeit 08:40 14:15 13:30 - 09:35 - 08:40 15:40 09:35
Minimum _ -6,8 C 81 % 1007,3 hPa - 0,0 km/h (0 Bft) - -7,5 C -8,2 C 0,0 km/h (0 Bft)
Max-Datum _ 08.01.13 08.01.13 07.01.13 10.01.13 10.01.13 - 08.01.13 08.01.13 10.01.13
_ Max-Zeit 21:30 22:30 11:05 12:40 15:40 - 22:30 21:55 13:50
Maximum _ 6,8 C 98 % 1028,2 hPa 2,0 l/m 19,2 km/h
N-NO (3 Bft)
- 6,5 C 6,8 C 25,7 km/h
W-NW (4 Bft)
Durchschnitt _ 2,0 C 94 % 1018,8 hPa #13,2 l/m 3,4 km/h (1 Bft) W-NW 1,1 C 1,7 C 7,4 km/h (2 Bft)